Terminal Aerodrome Forecast
Issued by NWS Jackson, MS

Home | Current Version | Previous Version | Text Only | Print | Product List | Glossary On
Versions: 1 2 3 4 5 6 7 8 9 10 11 12 13 14 15 16 17 18 19 20 21 22 23 24
000
FTUS44 KJAN 241700 RRA
TAFHBG
TAF
KHBG 241742Z 2418/2518 27003KT P6SM SKC
     FM242100 33005KT P6SM VCTS SCT030 BKN050CB
     FM250100 28002KT P6SM SCT040 BKN100
     FM250400 00000KT P6SM SCT250
     FM251000 00000KT 4SM BR SCT020=

USA.gov is the U.S. government's official web portal to all federal, state and local government web resources and services.